< < Back
Terminal Aerodrome Forecast


Current Version              Previous Versions:   1  2  3  4  5  6  7  8  9  

Terminal Aerodrome Forecast

462
FTUS42 KTAE 081720
TAFABY
TAF
KABY 081720Z 0818/0918 26015G30KT P6SM FEW040
     FM090000 28010G16KT P6SM BKN040
     FM090300 29010KT P6SM BKN040
     FM091500 28015G25KT P6SM SCT050=



Latest METAR

210
SAUS70 KWBC 091100 RRM
MTRABY
METAR KABY 091053Z AUTO 25009KT 10SM FEW070 03/M06 A2996 RMK AO2 SLP147
T00331056


USA.gov is the U.S. government's official web portal to all federal, state and local government web resources and services.